Time;durP1;ratioP1;P1;durP2;ratioP2;P2;SDS_P1;SDS_P2;PMS_P1;PMS_P2;Temp;Humidity;BMP_temperature;BMP_pressure;BME280_temperature;BME280_humidity;BME280_pressure;Samples;Min_cycle;Max_cycle;Signal;HPM_P1;HPM_P2
2022/03/14 00:00:19;;;;;;;8.45;7.13;;;2.70;94.20;;;;;;5092861;28;20028;-78
2022/03/14 00:02:45;;;;;;;9.18;6.40;;;2.70;94.10;;;;;;5074165;28;20500;-78
2022/03/14 00:05:14;;;;;;;9.35;7.35;;;2.70;94.00;;;;;;5093053;28;20029;-78
2022/03/14 00:07:44;;;;;;;12.18;7.75;;;2.70;94.00;;;;;;5070613;28;20028;-77
2022/03/14 00:10:13;;;;;;;11.27;6.55;;;2.70;93.90;;;;;;5072222;28;20074;-77
2022/03/14 00:12:42;;;;;;;12.70;7.43;;;2.70;93.80;;;;;;5082173;28;20043;-77
2022/03/14 00:15:12;;;;;;;11.43;6.85;;;2.70;93.80;;;;;;5076742;28;20049;-76
2022/03/14 00:17:41;;;;;;;13.60;7.18;;;2.70;93.80;;;;;;5071977;28;20031;-79
2022/03/14 00:20:10;;;;;;;8.23;6.40;;;2.70;93.80;;;;;;5071924;28;20020;-77
2022/03/14 00:22:37;;;;;;;11.88;7.57;;;2.70;93.70;;;;;;5072224;28;20104;-76
2022/03/14 00:25:04;;;;;;;8.88;7.60;;;2.60;93.70;;;;;;5071877;28;20385;-78
2022/03/14 00:27:30;;;;;;;12.02;7.90;;;2.60;93.70;;;;;;5075898;28;20054;-77
2022/03/14 00:29:56;;;;;;;12.75;7.90;;;2.60;93.60;;;;;;5092155;28;20052;-77
2022/03/14 00:32:21;;;;;;;14.13;8.90;;;2.60;93.60;;;;;;5092178;28;20834;-77
2022/03/14 00:34:47;;;;;;;11.45;8.10;;;2.60;93.70;;;;;;5092486;28;20474;-77
2022/03/14 00:37:13;;;;;;;12.70;7.07;;;2.60;93.80;;;;;;5092060;28;20060;-77
2022/03/14 00:39:40;;;;;;;11.73;7.78;;;2.60;93.80;;;;;;5073856;28;20035;-77
2022/03/14 00:42:05;;;;;;;11.37;7.97;;;2.60;93.70;;;;;;5093922;28;20020;-76
2022/03/14 00:44:32;;;;;;;13.43;6.45;;;2.60;93.60;;;;;;5093995;28;20028;-79
2022/03/14 00:47:00;;;;;;;10.77;7.40;;;2.60;93.60;;;;;;5092028;28;20034;-78
2022/03/14 00:49:27;;;;;;;12.13;7.07;;;2.70;93.60;;;;;;5092071;28;20024;-77
2022/03/14 00:51:52;;;;;;;12.15;8.75;;;2.60;93.60;;;;;;5092064;28;20447;-76
2022/03/14 00:54:18;;;;;;;9.32;7.70;;;2.70;93.60;;;;;;5092173;28;20032;-77
2022/03/14 00:56:44;;;;;;;15.23;7.07;;;2.80;93.60;;;;;;5091883;28;20105;-77
2022/03/14 00:59:09;;;;;;;10.77;7.20;;;2.80;93.50;;;;;;5073652;28;20071;-77
2022/03/14 01:01:35;;;;;;;9.27;6.30;;;2.80;93.30;;;;;;5091767;28;20538;-77
2022/03/14 01:04:01;;;;;;;13.43;6.80;;;2.80;93.30;;;;;;5073512;28;20020;-76
2022/03/14 01:06:27;;;;;;;11.10;7.28;;;2.80;93.20;;;;;;5090528;28;20035;-76
2022/03/14 01:08:53;;;;;;;12.27;7.65;;;2.80;93.20;;;;;;5092257;28;20036;-76
2022/03/14 01:11:19;;;;;;;10.38;6.80;;;2.80;93.20;;;;;;5092304;28;20067;-77
2022/03/14 01:13:45;;;;;;;11.32;6.85;;;2.80;93.20;;;;;;5092471;28;20040;-75
2022/03/14 01:16:11;;;;;;;9.30;7.28;;;2.80;93.20;;;;;;5078102;28;20039;-76
2022/03/14 01:18:37;;;;;;;10.07;6.60;;;2.80;93.30;;;;;;5095819;28;20024;-77
2022/03/14 01:21:03;;;;;;;10.35;7.22;;;2.80;93.20;;;;;;5095709;28;20063;-75
2022/03/14 01:23:28;;;;;;;10.70;6.63;;;2.80;93.10;;;;;;5095575;28;20070;-75
2022/03/14 01:25:54;;;;;;;10.77;7.32;;;2.80;93.10;;;;;;5095430;28;20047;-77
2022/03/14 01:28:20;;;;;;;13.80;7.15;;;2.80;93.10;;;;;;5095455;28;20056;-75
2022/03/14 01:30:46;;;;;;;10.48;6.90;;;2.80;93.10;;;;;;5095617;28;20061;-77
2022/03/14 01:33:12;;;;;;;10.07;6.60;;;2.80;93.10;;;;;;5095275;28;20118;-75
2022/03/14 01:35:39;;;;;;;10.45;7.03;;;2.80;93.00;;;;;;5095969;28;20448;-76
2022/03/14 01:38:05;;;;;;;11.95;6.55;;;2.70;93.00;;;;;;5095842;28;20488;-75
2022/03/14 01:40:31;;;;;;;7.68;6.70;;;2.70;93.10;;;;;;5095411;28;20031;-75
2022/03/14 01:42:57;;;;;;;10.57;7.07;;;2.70;93.10;;;;;;5095689;28;20030;-77
2022/03/14 01:45:23;;;;;;;9.85;6.93;;;2.70;93.10;;;;;;5095513;28;20024;-76
2022/03/14 01:47:49;;;;;;;10.35;6.35;;;2.70;93.10;;;;;;5095346;28;20449;-77
2022/03/14 01:50:16;;;;;;;11.65;7.22;;;2.70;93.20;;;;;;5095431;28;20095;-77
2022/03/14 01:52:43;;;;;;;10.75;6.57;;;2.70;93.20;;;;;;5077062;28;20036;-76
2022/03/14 01:55:10;;;;;;;9.07;6.60;;;2.70;93.20;;;;;;5095015;28;20020;-76
2022/03/14 01:57:37;;;;;;;10.45;6.40;;;2.70;93.20;;;;;;5094932;28;20055;-76
2022/03/14 02:00:05;;;;;;;11.60;7.90;;;2.70;93.20;;;;;;5095086;28;20430;-75
2022/03/14 02:02:31;;;;;;;9.25;7.50;;;2.70;93.20;;;;;;5095000;28;20039;-76
2022/03/14 02:04:57;;;;;;;9.20;7.13;;;2.70;93.10;;;;;;5094672;28;20075;-74
2022/03/14 02:07:23;;;;;;;10.77;7.47;;;2.80;93.20;;;;;;5076488;28;20092;-76
2022/03/14 02:09:49;;;;;;;10.48;6.95;;;2.80;93.10;;;;;;5094584;28;20032;-76
2022/03/14 02:12:15;;;;;;;12.43;8.02;;;2.80;93.10;;;;;;5094436;28;20032;-77
2022/03/14 02:14:41;;;;;;;9.40;6.97;;;2.80;93.00;;;;;;5092727;28;20048;-78
2022/03/14 02:17:13;;;;;;;11.50;7.47;;;2.80;93.00;;;;;;5093160;28;20031;-77
2022/03/14 02:19:40;;;;;;;13.68;7.03;;;2.90;93.00;;;;;;5094472;28;20020;-76
2022/03/14 02:22:14;;;;;;;8.23;6.63;;;2.90;92.90;;;;;;5094292;28;20082;-75
2022/03/14 02:24:46;;;;;;;10.70;7.40;;;2.90;92.90;;;;;;5076824;28;20052;-76
2022/03/14 02:27:15;;;;;;;14.35;6.55;;;2.90;92.90;;;;;;5093289;28;20029;-75
2022/03/14 02:29:42;;;;;;;7.07;5.85;;;2.90;92.80;;;;;;5095055;28;20158;-74
2022/03/14 02:32:09;;;;;;;9.02;6.53;;;2.80;92.80;;;;;;5076843;28;20063;-75
2022/03/14 02:34:35;;;;;;;9.60;6.88;;;2.90;92.90;;;;;;5094549;28;20024;-75
2022/03/14 02:37:02;;;;;;;10.63;7.40;;;2.90;92.90;;;;;;5094502;28;20020;-77
2022/03/14 02:39:28;;;;;;;11.98;7.20;;;2.80;92.90;;;;;;5094159;28;20374;-78
2022/03/14 02:41:54;;;;;;;12.70;8.40;;;2.80;93.00;;;;;;5093876;28;20039;-77
2022/03/14 02:44:20;;;;;;;10.40;7.47;;;2.80;93.10;;;;;;5075683;28;20047;-77
2022/03/14 02:46:46;;;;;;;12.80;7.05;;;2.70;93.20;;;;;;5094065;28;20389;-78
2022/03/14 02:49:12;;;;;;;12.68;6.38;;;2.70;93.30;;;;;;5094539;28;20070;-78
2022/03/14 02:51:39;;;;;;;9.85;7.43;;;2.70;93.30;;;;;;5094216;28;20035;-77
2022/03/14 02:54:05;;;;;;;9.33;7.40;;;2.70;93.40;;;;;;5094116;28;20106;-77
2022/03/14 02:56:35;;;;;;;14.25;7.97;;;2.70;93.50;;;;;;5094527;28;20023;-76
2022/03/14 02:59:02;;;;;;;12.50;7.70;;;2.70;93.60;;;;;;5076251;28;20028;-76
2022/03/14 03:01:27;;;;;;;12.07;8.45;;;2.70;93.60;;;;;;5093647;28;20086;-77
2022/03/14 03:03:53;;;;;;;13.70;8.32;;;2.70;93.60;;;;;;5075420;28;20480;-76
2022/03/14 03:06:22;;;;;;;9.38;7.10;;;2.70;93.60;;;;;;5093557;28;20031;-76
2022/03/14 03:08:52;;;;;;;12.00;7.38;;;2.70;93.70;;;;;;5093388;28;20028;-76
2022/03/14 03:11:20;;;;;;;10.40;7.05;;;2.70;93.70;;;;;;5093403;28;20055;-75
2022/03/14 03:13:50;;;;;;;;;;;2.70;93.60;;;;;;5093822;28;20044;-76
2022/03/14 03:16:16;;;;;;;10.65;7.50;;;2.70;93.50;;;;;;5093501;28;19904;-76
2022/03/14 03:18:45;;;;;;;11.90;8.30;;;2.70;93.50;;;;;;5075173;28;20031;-75
2022/03/14 03:21:12;;;;;;;10.60;7.53;;;2.80;93.50;;;;;;5093250;28;20261;-75
2022/03/14 03:23:39;;;;;;;14.75;10.07;;;2.80;93.50;;;;;;5094151;28;20024;-76
2022/03/14 03:26:05;;;;;;;12.13;8.13;;;2.80;93.50;;;;;;5093150;28;20066;-75
2022/03/14 03:28:37;;;;;;;9.00;7.57;;;2.80;93.40;;;;;;5093294;28;20149;-75
2022/03/14 03:31:18;;;;;;;13.70;8.73;;;2.80;93.40;;;;;;5074749;28;20044;-77
2022/03/14 03:33:45;;;;;;;15.82;9.20;;;2.90;93.40;;;;;;5074856;28;20111;-76
2022/03/14 03:36:10;;;;;;;14.20;9.25;;;2.90;93.30;;;;;;5092979;28;20479;-78
2022/03/14 03:38:37;;;;;;;12.68;8.23;;;2.90;93.30;;;;;;5092791;28;20091;-76
2022/03/14 03:41:03;;;;;;;13.55;9.88;;;2.90;93.30;;;;;;5093165;28;20020;-77
2022/03/14 03:43:29;;;;;;;11.73;8.65;;;3.00;93.40;;;;;;5093071;28;20024;-77
2022/03/14 03:45:55;;;;;;;15.68;11.02;;;3.00;93.30;;;;;;5093094;28;20024;-76
2022/03/14 03:48:21;;;;;;;15.82;10.50;;;3.00;93.30;;;;;;5092792;28;20016;-77
2022/03/14 03:50:47;;;;;;;15.63;9.57;;;3.00;93.30;;;;;;5092732;28;20082;-76
2022/03/14 03:53:13;;;;;;;17.73;11.80;;;3.00;93.40;;;;;;5092574;28;20103;-77
2022/03/14 03:55:38;;;;;;;17.90;12.90;;;3.00;93.50;;;;;;5092435;28;20108;-76
2022/03/14 03:58:05;;;;;;;17.92;11.73;;;3.00;93.60;;;;;;5092574;28;20028;-78
2022/03/14 04:00:30;;;;;;;24.02;13.80;;;3.00;93.60;;;;;;5070863;28;20028;-76
2022/03/14 04:02:57;;;;;;;16.55;12.13;;;3.00;93.70;;;;;;5072178;28;20028;-78
2022/03/14 04:05:25;;;;;;;19.95;14.15;;;2.90;93.70;;;;;;5072361;28;20032;-78
2022/03/14 04:07:54;;;;;;;20.35;12.80;;;2.90;93.80;;;;;;5072793;28;20017;-78
2022/03/14 04:10:20;;;;;;;16.58;13.48;;;2.90;93.90;;;;;;5054904;28;20027;-79
2022/03/14 04:12:46;;;;;;;17.35;12.35;;;2.90;93.90;;;;;;5072757;28;20040;-78
2022/03/14 04:15:12;;;;;;;22.00;13.70;;;2.90;93.90;;;;;;5077990;28;20059;-77
2022/03/14 04:17:40;;;;;;;17.33;12.27;;;2.90;94.00;;;;;;5092324;28;20031;-78
2022/03/14 04:20:08;;;;;;;21.30;14.25;;;2.90;94.10;;;;;;5092352;28;20024;-77
2022/03/14 04:22:38;;;;;;;21.58;12.85;;;2.90;94.20;;;;;;5092608;28;20170;-76
2022/03/14 04:25:05;;;;;;;23.05;13.40;;;2.90;94.50;;;;;;5093290;28;20039;-77
2022/03/14 04:27:31;;;;;;;;;;;2.90;94.30;;;;;;5094442;28;20374;-78
2022/03/14 04:29:57;;;;;;;25.05;13.23;;;2.90;94.20;;;;;;5074531;28;19915;-77
2022/03/14 04:32:23;;;;;;;19.83;12.40;;;2.90;94.30;;;;;;5093281;28;20401;-80
2022/03/14 04:34:50;;;;;;;21.67;14.68;;;3.00;94.30;;;;;;5091928;28;20020;-76
2022/03/14 04:37:16;;;;;;;18.98;14.93;;;2.90;94.30;;;;;;5092199;28;20027;-76
2022/03/14 04:39:43;;;;;;;20.00;14.10;;;2.90;94.40;;;;;;5073692;28;20024;-76
2022/03/14 04:42:09;;;;;;;20.43;14.13;;;3.00;94.40;;;;;;5092004;28;20440;-76
2022/03/14 04:44:36;;;;;;;20.58;14.43;;;3.00;94.40;;;;;;5091524;28;20028;-77
2022/03/14 04:47:03;;;;;;;19.88;13.35;;;3.00;94.40;;;;;;5073532;28;20049;-77
2022/03/14 04:49:29;;;;;;;22.33;15.47;;;3.00;94.40;;;;;;5072588;28;20032;-79
2022/03/14 04:51:55;;;;;;;18.70;12.68;;;3.00;94.40;;;;;;5091905;28;20834;-79
2022/03/14 04:54:22;;;;;;;21.05;14.82;;;3.00;94.40;;;;;;5074199;28;20028;-78
2022/03/14 04:56:48;;;;;;;22.20;13.40;;;3.00;94.30;;;;;;5071743;28;20067;-78
2022/03/14 04:59:14;;;;;;;23.83;15.32;;;3.00;94.40;;;;;;5076432;28;20016;-77
2022/03/14 05:01:40;;;;;;;26.23;16.08;;;3.00;94.50;;;;;;5086196;28;20099;-79
2022/03/14 05:04:06;;;;;;;25.83;16.55;;;3.00;94.50;;;;;;5070997;28;20550;-78
2022/03/14 05:06:33;;;;;;;19.92;14.60;;;3.00;94.50;;;;;;5071744;28;20032;-78
2022/03/14 05:08:59;;;;;;;18.17;12.30;;;3.10;94.30;;;;;;5071431;28;20055;-79
2022/03/14 05:11:26;;;;;;;21.58;13.82;;;3.20;94.00;;;;;;5071470;28;20032;-78
2022/03/14 05:13:52;;;;;;;21.25;14.95;;;3.10;93.90;;;;;;5086867;28;20045;-76
2022/03/14 05:16:19;;;;;;;23.45;14.25;;;3.10;94.00;;;;;;5086844;28;20033;-78
2022/03/14 05:18:47;;;;;;;20.65;13.18;;;3.10;94.00;;;;;;5071207;28;20013;-76
2022/03/14 05:21:13;;;;;;;20.42;12.55;;;3.10;94.00;;;;;;5087595;28;20039;-78
2022/03/14 05:23:40;;;;;;;18.27;11.95;;;3.10;94.00;;;;;;5083116;28;20480;-76
2022/03/14 05:26:06;;;;;;;16.42;11.65;;;3.10;93.90;;;;;;5091545;28;20480;-78
2022/03/14 05:28:32;;;;;;;19.27;12.30;;;3.10;93.70;;;;;;5091684;28;20020;-76
2022/03/14 05:30:58;;;;;;;16.38;10.65;;;3.10;93.60;;;;;;5091580;28;20088;-78
2022/03/14 05:33:24;;;;;;;18.05;11.82;;;3.10;93.30;;;;;;5091467;28;20471;-79
2022/03/14 05:35:53;;;;;;;16.45;10.48;;;3.10;93.20;;;;;;5091563;28;20020;-78
2022/03/14 05:38:19;;;;;;;15.30;10.13;;;3.10;93.00;;;;;;5091541;28;20056;-78
2022/03/14 05:40:45;;;;;;;14.98;9.07;;;3.10;92.50;;;;;;5091547;28;20047;-77
2022/03/14 05:43:11;;;;;;;14.98;7.10;;;3.10;92.30;;;;;;5091343;28;20070;-77
2022/03/14 05:45:39;;;;;;;13.87;8.20;;;3.10;91.90;;;;;;5091203;28;20445;-76
2022/03/14 05:48:06;;;;;;;13.07;7.63;;;3.10;91.60;;;;;;5091267;28;20380;-78
2022/03/14 05:50:31;;;;;;;13.50;8.60;;;3.20;91.20;;;;;;5091160;28;20068;-79
2022/03/14 05:52:57;;;;;;;16.15;8.10;;;3.20;90.90;;;;;;5073156;28;20093;-78
2022/03/14 05:55:23;;;;;;;11.15;6.30;;;3.20;90.40;;;;;;5091317;28;20546;-80
2022/03/14 05:57:49;;;;;;;13.35;7.15;;;3.30;90.30;;;;;;5091502;28;20042;-77
2022/03/14 06:00:24;;;;;;;12.20;8.32;;;3.40;90.00;;;;;;5092694;28;20020;-78
2022/03/14 06:02:54;;;;;;;9.00;6.68;;;3.50;89.20;;;;;;5092118;28;20028;-78
2022/03/14 06:05:21;;;;;;;13.68;7.82;;;3.70;88.10;;;;;;5076394;28;20021;-79
2022/03/14 06:07:47;;;;;;;11.15;7.00;;;3.70;87.30;;;;;;5094883;28;20047;-77
2022/03/14 06:10:15;;;;;;;10.60;6.95;;;3.70;87.10;;;;;;5094704;28;20035;-77
2022/03/14 06:12:42;;;;;;;18.63;9.70;;;3.90;86.80;;;;;;5094690;28;20150;-77
2022/03/14 06:15:12;;;;;;;12.93;6.53;;;4.00;85.50;;;;;;5088810;28;20146;-77
2022/03/14 06:17:41;;;;;;;15.07;6.32;;;4.00;83.60;;;;;;5097587;28;20085;-76
2022/03/14 06:20:12;;;;;;;18.30;8.13;;;3.90;79.90;;;;;;5096547;28;20019;-77
2022/03/14 06:22:39;;;;;;;6.93;3.97;;;3.90;78.70;;;;;;5076412;28;20795;-76
2022/03/14 06:25:05;;;;;;;;;;;4.00;78.40;;;;;;5076041;28;20381;-75
2022/03/14 06:27:31;;;;;;;5.25;3.22;;;4.10;76.20;;;;;;5093272;28;19915;-77
2022/03/14 06:29:56;;;;;;;8.00;3.40;;;4.20;75.10;;;;;;5074407;28;20021;-78
2022/03/14 06:32:22;;;;;;;7.57;3.65;;;4.30;74.10;;;;;;5063449;28;20130;-77
2022/03/14 06:34:48;;;;;;;5.72;2.90;;;4.40;72.20;;;;;;5095224;28;20073;-80
2022/03/14 06:37:14;;;;;;;5.88;2.33;;;4.40;72.00;;;;;;5096444;28;20039;-79
2022/03/14 06:39:40;;;;;;;5.68;2.60;;;4.60;70.70;;;;;;5075961;28;20121;-79
2022/03/14 06:42:12;;;;;;;6.82;3.00;;;4.70;69.00;;;;;;5085091;28;20423;-80
2022/03/14 06:44:41;;;;;;;5.63;3.03;;;4.80;68.40;;;;;;5077972;28;20020;-80
2022/03/14 06:47:12;;;;;;;4.00;3.00;;;4.90;67.80;;;;;;5074006;28;20555;-80
2022/03/14 06:49:44;;;;;;;4.85;2.90;;;4.80;66.90;;;;;;5092609;28;20043;-78
2022/03/14 06:52:14;;;;;;;3.28;2.42;;;4.80;66.90;;;;;;5090157;28;20039;-79
2022/03/14 06:54:40;;;;;;;6.25;3.33;;;4.70;66.80;;;;;;5075840;28;20020;-80
2022/03/14 06:57:07;;;;;;;7.90;3.38;;;4.70;66.20;;;;;;5077564;28;20107;-77
2022/03/14 06:59:33;;;;;;;6.38;3.83;;;4.60;66.30;;;;;;5093513;28;20465;-78
2022/03/14 07:01:59;;;;;;;8.50;4.65;;;4.60;65.70;;;;;;5094136;28;20031;-77
2022/03/14 07:04:27;;;;;;;8.05;5.63;;;4.40;66.40;;;;;;5077242;28;20016;-77
2022/03/14 07:06:53;;;;;;;10.75;5.72;;;4.30;67.00;;;;;;5093518;28;20028;-78
2022/03/14 07:09:19;;;;;;;7.85;4.50;;;4.30;66.40;;;;;;5093536;28;20427;-77
2022/03/14 07:11:45;;;;;;;20.20;9.20;;;4.20;65.90;;;;;;5092357;28;20114;-81
2022/03/14 07:14:11;;;;;;;14.70;7.25;;;4.10;66.50;;;;;;5076215;28;20101;-81
2022/03/14 07:16:36;;;;;;;9.85;6.10;;;4.10;66.60;;;;;;5075612;28;20024;-75
2022/03/14 07:19:02;;;;;;;14.93;5.32;;;4.30;67.10;;;;;;5092104;28;20034;-79
2022/03/14 07:21:28;;;;;;;11.70;4.00;;;4.50;65.20;;;;;;5093279;28;20028;-77
2022/03/14 07:23:57;;;;;;;11.27;3.72;;;4.50;64.80;;;;;;5093125;28;20020;-78
2022/03/14 07:26:24;;;;;;;8.68;3.30;;;4.90;64.70;;;;;;5093329;28;20024;-79
2022/03/14 07:28:50;;;;;;;8.90;5.25;;;5.10;63.60;;;;;;5093312;28;20047;-78
2022/03/14 07:31:20;;;;;;;8.82;3.63;;;5.30;62.90;;;;;;5093030;28;20032;-79
2022/03/14 07:33:48;;;;;;;5.30;3.25;;;5.30;61.60;;;;;;5093121;28;20027;-79
2022/03/14 07:36:14;;;;;;;8.07;4.03;;;5.40;62.10;;;;;;5093525;28;20115;-77
2022/03/14 07:38:40;;;;;;;7.40;3.63;;;5.60;61.60;;;;;;5094464;28;20108;-76
2022/03/14 07:41:08;;;;;;;8.02;4.20;;;5.90;60.50;;;;;;5092980;28;20044;-78
2022/03/14 07:43:37;;;;;;;6.70;3.75;;;6.10;60.40;;;;;;5092744;28;20115;-79
2022/03/14 07:46:03;;;;;;;7.57;4.47;;;6.30;59.80;;;;;;5074503;28;20031;-78
2022/03/14 07:48:30;;;;;;;8.45;3.15;;;6.50;59.60;;;;;;5092723;28;20096;-77
2022/03/14 07:50:55;;;;;;;6.10;3.85;;;6.40;58.40;;;;;;5092669;28;20381;-78
2022/03/14 07:53:22;;;;;;;4.18;3.13;;;6.20;58.10;;;;;;5092506;28;20032;-77
2022/03/14 07:55:48;;;;;;;4.40;3.30;;;6.20;58.60;;;;;;5092735;28;20587;-78
2022/03/14 07:58:13;;;;;;;7.68;3.28;;;5.90;58.50;;;;;;5092468;28;20155;-77
2022/03/14 08:00:39;;;;;;;6.28;3.67;;;6.10;59.00;;;;;;5092382;28;20028;-78
2022/03/14 08:03:05;;;;;;;3.67;2.80;;;6.30;58.20;;;;;;5092248;28;20032;-77
2022/03/14 08:05:31;;;;;;;4.30;2.88;;;6.40;57.70;;;;;;5092244;28;20469;-78
2022/03/14 08:07:59;;;;;;;9.77;3.67;;;6.50;56.90;;;;;;5074373;28;20766;-76
2022/03/14 08:10:26;;;;;;;4.63;3.53;;;6.60;57.00;;;;;;5074620;28;20111;-79
2022/03/14 08:12:54;;;;;;;5.43;3.50;;;6.90;56.60;;;;;;5095666;28;20096;-80
2022/03/14 08:15:24;;;;;;;7.10;3.40;;;7.20;55.90;;;;;;5098996;28;20044;-78
2022/03/14 08:17:52;;;;;;;4.35;2.97;;;7.50;55.10;;;;;;5074858;28;20461;-79
2022/03/14 08:20:19;;;;;;;7.28;3.10;;;7.80;54.10;;;;;;5092365;28;20024;-79
2022/03/14 08:22:45;;;;;;;4.10;3.38;;;8.00;53.20;;;;;;5092129;28;20103;-77
2022/03/14 08:25:11;;;;;;;5.97;3.70;;;8.00;52.30;;;;;;5092909;28;20024;-79
2022/03/14 08:27:38;;;;;;;5.90;3.47;;;8.00;53.20;;;;;;5092944;28;20016;-78
2022/03/14 08:30:05;;;;;;;9.43;3.70;;;8.30;52.70;;;;;;5092752;28;20024;-80
2022/03/14 08:32:32;;;;;;;5.53;3.53;;;8.60;51.60;;;;;;5093259;28;20509;-78
2022/03/14 08:35:05;;;;;;;7.82;3.92;;;8.80;51.60;;;;;;5074071;28;20028;-81
2022/03/14 08:37:31;;;;;;;6.85;2.83;;;8.70;50.90;;;;;;5092583;28;20039;-79
2022/03/14 08:39:57;;;;;;;7.07;4.03;;;8.40;51.00;;;;;;5073890;28;20028;-77
2022/03/14 08:42:22;;;;;;;5.47;3.10;;;8.20;51.20;;;;;;5091924;28;20024;-77
2022/03/14 08:44:48;;;;;;;4.40;2.58;;;8.10;51.80;;;;;;5073934;28;20077;-80
2022/03/14 08:47:14;;;;;;;8.50;3.70;;;8.00;50.50;;;;;;5092076;28;20024;-77
2022/03/14 08:49:40;;;;;;;9.73;4.63;;;7.60;51.40;;;;;;5092978;28;20040;-80
2022/03/14 08:52:06;;;;;;;9.35;3.75;;;7.40;52.80;;;;;;5092200;28;20054;-78
2022/03/14 08:54:32;;;;;;;9.27;5.18;;;7.40;52.20;;;;;;5073587;28;20024;-78
2022/03/14 08:56:58;;;;;;;7.97;3.80;;;7.30;53.00;;;;;;5073708;28;20036;-77
2022/03/14 08:59:24;;;;;;;5.95;3.75;;;7.60;53.00;;;;;;5073625;28;20058;-79
2022/03/14 09:01:50;;;;;;;5.18;2.83;;;7.80;52.20;;;;;;5091890;28;20020;-78
2022/03/14 09:04:16;;;;;;;10.05;3.65;;;7.90;51.90;;;;;;5092115;28;20099;-78
2022/03/14 09:06:43;;;;;;;6.80;3.43;;;7.60;51.60;;;;;;5092491;28;20024;-80
2022/03/14 09:09:08;;;;;;;3.97;3.10;;;7.60;52.20;;;;;;5093118;28;20035;-80
2022/03/14 09:11:34;;;;;;;3.70;2.50;;;7.90;52.70;;;;;;5094879;28;20044;-79
2022/03/14 09:14:00;;;;;;;3.00;2.13;;;8.30;50.60;;;;;;5073600;28;20040;-77
2022/03/14 09:16:26;;;;;;;4.22;2.92;;;8.10;49.60;;;;;;5091758;28;20053;-78
2022/03/14 09:18:52;;;;;;;4.32;2.50;;;7.90;50.70;;;;;;5091808;28;20393;-80
2022/03/14 09:21:19;;;;;;;7.55;3.08;;;8.20;50.50;;;;;;5091770;28;20020;-79
2022/03/14 09:23:52;;;;;;;5.63;2.80;;;8.40;50.70;;;;;;5092000;28;20061;-79
2022/03/14 09:26:18;;;;;;;3.55;2.70;;;9.00;49.00;;;;;;5091778;28;20088;-79
2022/03/14 09:28:44;;;;;;;6.15;2.97;;;9.80;48.00;;;;;;5092243;28;20058;-78
2022/03/14 09:31:14;;;;;;;4.43;3.08;;;10.70;46.00;;;;;;5093558;28;20028;-78
2022/03/14 09:33:39;;;;;;;5.05;3.28;;;11.60;44.10;;;;;;5074909;28;20077;-80
2022/03/14 09:36:06;;;;;;;4.93;3.10;;;12.20;43.10;;;;;;5076887;28;20130;-79
2022/03/14 09:38:32;;;;;;;6.57;3.45;;;13.10;41.90;;;;;;5095607;28;20354;-80
2022/03/14 09:41:03;;;;;;;9.02;4.57;;;14.40;40.30;;;;;;5095344;28;20115;-79
2022/03/14 09:43:57;;;;;;;4.63;3.33;;;15.30;38.90;;;;;;5095508;28;20161;-80
2022/03/14 09:46:25;;;;;;;9.02;3.47;;;16.00;36.80;;;;;;5067179;28;20067;-78
2022/03/14 09:48:57;;;;;;;7.47;3.58;;;15.70;36.90;;;;;;5060470;28;20483;-78
2022/03/14 09:51:24;;;;;;;9.43;5.53;;;14.60;36.70;;;;;;5094985;28;20566;-80
2022/03/14 09:53:51;;;;;;;7.97;3.97;;;13.60;38.40;;;;;;5095701;28;20060;-78
2022/03/14 09:56:17;;;;;;;6.25;4.15;;;13.70;38.70;;;;;;5095340;28;20535;-78
2022/03/14 09:58:46;;;;;;;6.55;3.85;;;12.90;38.70;;;;;;5095812;28;20024;-78
2022/03/14 10:01:13;;;;;;;8.55;3.83;;;11.70;40.30;;;;;;5095416;28;20059;-80
2022/03/14 10:03:39;;;;;;;6.63;3.80;;;11.00;41.90;;;;;;5095025;28;20392;-79
2022/03/14 10:06:05;;;;;;;7.10;4.20;;;10.50;43.10;;;;;;5076555;28;20028;-78
2022/03/14 10:08:32;;;;;;;7.00;2.75;;;10.50;43.60;;;;;;5094898;28;20474;-80
2022/03/14 10:10:58;;;;;;;5.68;3.42;;;10.00;42.90;;;;;;5094806;28;20029;-80
2022/03/14 10:13:25;;;;;;;7.30;3.63;;;9.10;44.50;;;;;;5098308;28;20044;-77
2022/03/14 10:15:51;;;;;;;5.10;3.00;;;9.10;45.70;;;;;;5098557;28;20024;-79
2022/03/14 10:18:18;;;;;;;6.05;3.83;;;9.00;45.40;;;;;;5093661;28;20028;-77
2022/03/14 10:20:58;;;;;;;9.70;7.07;;;9.00;46.20;;;;;;5093488;28;20389;-79
2022/03/14 10:23:39;;;;;;;6.82;3.47;;;9.30;46.70;;;;;;5094672;28;20059;-78
2022/03/14 10:26:08;;;;;;;6.45;3.97;;;9.70;45.50;;;;;;5095165;28;20461;-81
2022/03/14 10:28:38;;;;;;;8.52;4.28;;;9.40;45.60;;;;;;5094327;28;20107;-81
2022/03/14 10:31:05;;;;;;;4.55;2.88;;;9.00;46.00;;;;;;5094623;28;20016;-79
2022/03/14 10:33:33;;;;;;;4.25;3.10;;;8.20;46.30;;;;;;5094507;28;20040;-79
2022/03/14 10:36:00;;;;;;;;;;;7.40;48.20;;;;;;5076695;28;20032;-78
2022/03/14 10:38:26;;;;;;;6.55;3.80;;;7.00;48.80;;;;;;5094749;28;19951;-78
2022/03/14 10:40:52;;;;;;;3.08;2.55;;;6.50;50.80;;;;;;5096835;28;20437;-78
2022/03/14 10:43:24;;;;;;;8.05;3.25;;;6.30;51.00;;;;;;5096231;28;20103;-80
2022/03/14 10:45:51;;;;;;;6.03;3.88;;;6.20;51.80;;;;;;5095125;28;20381;-78
2022/03/14 10:48:30;;;;;;;4.47;3.05;;;6.00;52.50;;;;;;5094893;28;20035;-78
2022/03/14 10:51:01;;;;;;;5.40;3.60;;;5.90;53.20;;;;;;5094248;28;20028;-77
2022/03/14 10:53:26;;;;;;;4.68;2.75;;;5.70;53.90;;;;;;5093821;28;20052;-80
2022/03/14 10:56:06;;;;;;;3.97;3.28;;;5.50;54.30;;;;;;5093859;28;20109;-79
2022/03/14 10:58:33;;;;;;;3.72;2.63;;;5.30;55.20;;;;;;5075660;28;20119;-78
2022/03/14 11:01:02;;;;;;;7.13;3.28;;;5.20;55.70;;;;;;5093702;28;20152;-78
2022/03/14 11:03:35;;;;;;;5.93;3.20;;;5.20;56.40;;;;;;5075612;28;20029;-80
2022/03/14 11:06:07;;;;;;;9.75;3.70;;;5.30;56.80;;;;;;5093562;28;20031;-78
2022/03/14 11:08:35;;;;;;;3.85;2.88;;;5.40;56.60;;;;;;5093525;28;20024;-77
2022/03/14 11:11:04;;;;;;;7.22;3.17;;;5.60;56.00;;;;;;5074801;28;20035;-77
2022/03/14 11:13:30;;;;;;;11.52;4.00;;;5.70;56.20;;;;;;5092129;28;20067;-78
2022/03/14 11:15:57;;;;;;;6.90;2.65;;;5.60;56.20;;;;;;5075471;28;20507;-78
2022/03/14 11:18:24;;;;;;;4.20;2.92;;;5.60;56.30;;;;;;5093777;28;20036;-77
2022/03/14 11:20:51;;;;;;;8.43;4.43;;;5.60;56.50;;;;;;5093441;28;20385;-77
2022/03/14 11:23:18;;;;;;;;;;;5.60;56.80;;;;;;5096000;28;20050;-78
2022/03/14 11:25:44;;;;;;;9.55;4.53;;;5.60;56.50;;;;;;5093555;28;19904;-78
2022/03/14 11:28:18;;;;;;;4.25;3.05;;;5.70;57.80;;;;;;5093248;28;20102;-79
2022/03/14 11:30:50;;;;;;;5.10;3.35;;;5.70;57.00;;;;;;5093591;28;20058;-79
2022/03/14 11:33:17;;;;;;;7.63;2.92;;;5.70;56.80;;;;;;5092941;28;20516;-79
2022/03/14 11:35:43;;;;;;;6.07;3.43;;;5.60;57.20;;;;;;5093178;28;20020;-78
2022/03/14 11:38:10;;;;;;;5.60;3.13;;;5.60;56.90;;;;;;5093076;28;20024;-80
2022/03/14 11:40:37;;;;;;;4.07;2.97;;;5.60;56.80;;;;;;5093098;28;20042;-78
2022/03/14 11:43:03;;;;;;;6.03;3.13;;;5.70;56.80;;;;;;5092890;28;20389;-78
2022/03/14 11:45:30;;;;;;;7.38;2.90;;;5.70;56.80;;;;;;5092671;28;20021;-79
2022/03/14 11:47:57;;;;;;;4.35;2.63;;;5.80;56.80;;;;;;5093167;28;20021;-80
2022/03/14 11:50:23;;;;;;;4.00;3.28;;;5.70;56.40;;;;;;5074614;28;20030;-80
2022/03/14 11:52:55;;;;;;;5.95;3.20;;;5.70;56.90;;;;;;5092574;28;20397;-78
2022/03/14 11:55:29;;;;;;;3.92;2.90;;;5.70;56.80;;;;;;5092615;28;20099;-79
2022/03/14 11:57:55;;;;;;;3.22;2.92;;;5.60;57.30;;;;;;5074018;28;20366;-80
2022/03/14 12:00:21;;;;;;;4.05;2.70;;;5.70;57.20;;;;;;5092746;28;20031;-80
2022/03/14 12:02:48;;;;;;;5.25;2.97;;;5.80;57.20;;;;;;5092630;28;20093;-78
2022/03/14 12:05:20;;;;;;;6.07;3.28;;;5.80;57.10;;;;;;5092636;28;20388;-78
2022/03/14 12:07:45;;;;;;;4.30;3.20;;;6.00;56.90;;;;;;5092540;28;20024;-78
2022/03/14 12:10:32;;;;;;;5.97;3.35;;;6.00;56.40;;;;;;5075115;28;20024;-80
2022/03/14 12:12:58;;;;;;;6.75;3.17;;;6.00;56.40;;;;;;5093899;28;20040;-80
2022/03/14 12:15:48;;;;;;;5.07;2.53;;;6.00;56.50;;;;;;5096325;28;20053;-78
2022/03/14 12:18:26;;;;;;;5.40;2.63;;;6.00;56.40;;;;;;5074617;28;20464;-79
2022/03/14 12:20:59;;;;;;;4.95;3.22;;;6.10;56.30;;;;;;5092607;28;20504;-79
2022/03/14 12:23:28;;;;;;;4.47;3.25;;;6.10;56.10;;;;;;5092355;28;20401;-82
2022/03/14 12:25:55;;;;;;;6.07;2.63;;;6.20;56.30;;;;;;5092482;28;20020;-81
2022/03/14 12:28:37;;;;;;;4.80;3.10;;;6.20;56.30;;;;;;5092295;28;20027;-77
2022/03/14 12:31:17;;;;;;;6.78;3.05;;;6.20;56.30;;;;;;5092270;28;20024;-81
2022/03/14 12:33:44;;;;;;;5.95;2.42;;;6.20;55.80;;;;;;5074332;28;20028;-79
2022/03/14 12:36:21;;;;;;;2.92;2.10;;;6.00;56.00;;;;;;5092011;28;20032;-78
2022/03/14 12:39:12;;;;;;;3.95;3.08;;;5.80;56.60;;;;;;5073935;28;20027;-79
2022/03/14 12:41:42;;;;;;;6.90;2.72;;;5.70;57.00;;;;;;5092082;28;20024;-78
2022/03/14 12:44:17;;;;;;;3.40;2.30;;;5.50;57.60;;;;;;5092141;28;20445;-79
2022/03/14 12:46:44;;;;;;;5.43;2.60;;;5.40;57.80;;;;;;5093662;28;20078;-79
2022/03/14 12:49:10;;;;;;;5.30;2.25;;;5.50;58.00;;;;;;5093108;28;20016;-79
2022/03/14 12:51:39;;;;;;;4.03;2.53;;;5.50;57.80;;;;;;5092343;28;20036;-78
2022/03/14 12:54:05;;;;;;;4.57;2.05;;;5.40;57.40;;;;;;5092180;28;20024;-79